sensor_id;sensor_type;location;lat;lon;timestamp;P1;durP1;ratioP1;P2;durP2;ratioP2
74972;SDS011;63529;56.320;43.990;2022-09-28T00:00:30;9.90;;;4.65;;
74972;SDS011;63529;56.320;43.990;2022-09-28T00:02:57;9.45;;;4.97;;
74972;SDS011;63529;56.320;43.990;2022-09-28T00:05:24;9.23;;;4.85;;
74972;SDS011;63529;56.320;43.990;2022-09-28T00:07:53;14.73;;;5.55;;
74972;SDS011;63529;56.320;43.990;2022-09-28T00:10:19;11.93;;;4.97;;
74972;SDS011;63529;56.320;43.990;2022-09-28T00:12:50;11.27;;;5.30;;
74972;SDS011;63529;56.320;43.990;2022-09-28T00:15:20;11.25;;;5.43;;
74972;SDS011;63529;56.320;43.990;2022-09-28T00:17:46;12.23;;;4.47;;
74972;SDS011;63529;56.320;43.990;2022-09-28T00:20:12;14.38;;;5.45;;
74972;SDS011;63529;56.320;43.990;2022-09-28T00:22:38;11.40;;;5.38;;
74972;SDS011;63529;56.320;43.990;2022-09-28T00:25:05;10.85;;;4.82;;
74972;SDS011;63529;56.320;43.990;2022-09-28T00:27:31;10.70;;;4.60;;
74972;SDS011;63529;56.320;43.990;2022-09-28T00:29:57;10.65;;;5.50;;
74972;SDS011;63529;56.320;43.990;2022-09-28T00:32:23;14.77;;;6.15;;
74972;SDS011;63529;56.320;43.990;2022-09-28T00:34:49;9.68;;;4.53;;
74972;SDS011;63529;56.320;43.990;2022-09-28T00:37:17;12.05;;;6.03;;
74972;SDS011;63529;56.320;43.990;2022-09-28T00:39:43;8.73;;;4.47;;
74972;SDS011;63529;56.320;43.990;2022-09-28T00:44:47;9.27;;;4.82;;
74972;SDS011;63529;56.320;43.990;2022-09-28T00:47:17;10.57;;;5.00;;
74972;SDS011;63529;56.320;43.990;2022-09-28T00:52:25;10.82;;;5.22;;
74972;SDS011;63529;56.320;43.990;2022-09-28T00:55:02;10.75;;;5.15;;
74972;SDS011;63529;56.320;43.990;2022-09-28T00:57:32;9.57;;;4.97;;
74972;SDS011;63529;56.320;43.990;2022-09-28T01:00:00;9.10;;;4.95;;
74972;SDS011;63529;56.320;43.990;2022-09-28T01:02:28;9.15;;;4.80;;
74972;SDS011;63529;56.320;43.990;2022-09-28T01:04:54;10.43;;;5.60;;
74972;SDS011;63529;56.320;43.990;2022-09-28T01:07:21;9.63;;;4.57;;
74972;SDS011;63529;56.320;43.990;2022-09-28T01:09:47;12.27;;;5.32;;
74972;SDS011;63529;56.320;43.990;2022-09-28T01:12:15;11.90;;;4.70;;
74972;SDS011;63529;56.320;43.990;2022-09-28T01:14:40;15.05;;;5.35;;
74972;SDS011;63529;56.320;43.990;2022-09-28T01:17:16;9.80;;;5.28;;
74972;SDS011;63529;56.320;43.990;2022-09-28T01:25:23;12.18;;;4.88;;
74972;SDS011;63529;56.320;43.990;2022-09-28T01:27:58;10.20;;;5.10;;
74972;SDS011;63529;56.320;43.990;2022-09-28T01:30:49;10.15;;;5.07;;
74972;SDS011;63529;56.320;43.990;2022-09-28T01:33:37;10.10;;;5.20;;
74972;SDS011;63529;56.320;43.990;2022-09-28T01:41:20;13.02;;;5.68;;
74972;SDS011;63529;56.320;43.990;2022-09-28T01:43:50;9.82;;;4.60;;
74972;SDS011;63529;56.320;43.990;2022-09-28T01:46:26;9.55;;;4.90;;
74972;SDS011;63529;56.320;43.990;2022-09-28T01:49:01;8.93;;;4.72;;
74972;SDS011;63529;56.320;43.990;2022-09-28T01:51:54;9.82;;;5.25;;
74972;SDS011;63529;56.320;43.990;2022-09-28T01:54:29;9.82;;;4.85;;
74972;SDS011;63529;56.320;43.990;2022-09-28T01:57:07;11.50;;;5.40;;
74972;SDS011;63529;56.320;43.990;2022-09-28T01:59:42;7.50;;;3.28;;
74972;SDS011;63529;56.320;43.990;2022-09-28T02:02:15;9.77;;;5.35;;
74972;SDS011;63529;56.320;43.990;2022-09-28T02:04:48;7.22;;;3.95;;
74972;SDS011;63529;56.320;43.990;2022-09-28T02:07:23;12.40;;;6.07;;
74972;SDS011;63529;56.320;43.990;2022-09-28T02:09:55;10.70;;;5.72;;
74972;SDS011;63529;56.320;43.990;2022-09-28T02:12:35;8.90;;;5.32;;
74972;SDS011;63529;56.320;43.990;2022-09-28T02:15:29;10.98;;;5.78;;
74972;SDS011;63529;56.320;43.990;2022-09-28T02:18:01;7.47;;;4.25;;
74972;SDS011;63529;56.320;43.990;2022-09-28T02:20:28;10.45;;;5.43;;
74972;SDS011;63529;56.320;43.990;2022-09-28T02:22:57;10.10;;;5.43;;
74972;SDS011;63529;56.320;43.990;2022-09-28T02:25:46;12.23;;;5.93;;
74972;SDS011;63529;56.320;43.990;2022-09-28T02:28:19;9.63;;;5.05;;
74972;SDS011;63529;56.320;43.990;2022-09-28T02:30:45;10.23;;;5.03;;
74972;SDS011;63529;56.320;43.990;2022-09-28T02:33:14;6.95;;;4.28;;
74972;SDS011;63529;56.320;43.990;2022-09-28T02:35:47;9.95;;;5.43;;
74972;SDS011;63529;56.320;43.990;2022-09-28T02:38:13;7.13;;;3.70;;
74972;SDS011;63529;56.320;43.990;2022-09-28T02:40:41;7.70;;;4.00;;
74972;SDS011;63529;56.320;43.990;2022-09-28T02:43:22;6.35;;;3.72;;
74972;SDS011;63529;56.320;43.990;2022-09-28T02:52:06;10.45;;;4.15;;
74972;SDS011;63529;56.320;43.990;2022-09-28T02:54:53;8.18;;;4.45;;
74972;SDS011;63529;56.320;43.990;2022-09-28T03:00:11;6.82;;;3.13;;
74972;SDS011;63529;56.320;43.990;2022-09-28T03:05:19;8.98;;;5.03;;
74972;SDS011;63529;56.320;43.990;2022-09-28T03:13:03;9.82;;;4.70;;
74972;SDS011;63529;56.320;43.990;2022-09-28T03:15:32;9.63;;;4.53;;
74972;SDS011;63529;56.320;43.990;2022-09-28T03:17:59;5.97;;;3.42;;
74972;SDS011;63529;56.320;43.990;2022-09-28T03:20:26;8.52;;;3.90;;
74972;SDS011;63529;56.320;43.990;2022-09-28T03:22:53;8.63;;;4.75;;
74972;SDS011;63529;56.320;43.990;2022-09-28T03:25:19;7.60;;;3.53;;
74972;SDS011;63529;56.320;43.990;2022-09-28T03:27:45;7.22;;;3.80;;
74972;SDS011;63529;56.320;43.990;2022-09-28T03:30:12;7.70;;;3.75;;
74972;SDS011;63529;56.320;43.990;2022-09-28T03:32:42;6.57;;;3.97;;
74972;SDS011;63529;56.320;43.990;2022-09-28T03:35:08;8.13;;;4.07;;
74972;SDS011;63529;56.320;43.990;2022-09-28T03:37:34;5.32;;;3.20;;
74972;SDS011;63529;56.320;43.990;2022-09-28T03:40:00;11.95;;;4.57;;
74972;SDS011;63529;56.320;43.990;2022-09-28T03:42:28;7.68;;;4.18;;
74972;SDS011;63529;56.320;43.990;2022-09-28T03:44:54;7.43;;;4.45;;
74972;SDS011;63529;56.320;43.990;2022-09-28T03:47:21;7.53;;;3.40;;
74972;SDS011;63529;56.320;43.990;2022-09-28T03:49:47;7.65;;;4.20;;
74972;SDS011;63529;56.320;43.990;2022-09-28T03:52:13;8.05;;;4.45;;
74972;SDS011;63529;56.320;43.990;2022-09-28T03:54:39;7.38;;;3.88;;
74972;SDS011;63529;56.320;43.990;2022-09-28T03:57:05;6.32;;;3.28;;
74972;SDS011;63529;56.320;43.990;2022-09-28T03:59:32;6.50;;;3.67;;
74972;SDS011;63529;56.320;43.990;2022-09-28T04:02:02;7.95;;;3.88;;
74972;SDS011;63529;56.320;43.990;2022-09-28T04:04:30;5.43;;;2.88;;
74972;SDS011;63529;56.320;43.990;2022-09-28T04:06:56;8.45;;;4.30;;
74972;SDS011;63529;56.320;43.990;2022-09-28T04:09:23;5.28;;;3.10;;
74972;SDS011;63529;56.320;43.990;2022-09-28T04:11:49;7.80;;;4.45;;
74972;SDS011;63529;56.320;43.990;2022-09-28T04:14:16;7.38;;;3.75;;
74972;SDS011;63529;56.320;43.990;2022-09-28T04:16:42;8.25;;;4.38;;
74972;SDS011;63529;56.320;43.990;2022-09-28T04:19:11;8.10;;;4.32;;
74972;SDS011;63529;56.320;43.990;2022-09-28T04:22:10;6.55;;;3.33;;
74972;SDS011;63529;56.320;43.990;2022-09-28T04:24:36;2.90;;;1.85;;
74972;SDS011;63529;56.320;43.990;2022-09-28T04:27:02;7.28;;;3.22;;
74972;SDS011;63529;56.320;43.990;2022-09-28T04:29:47;10.88;;;4.25;;
74972;SDS011;63529;56.320;43.990;2022-09-28T04:32:13;6.40;;;3.58;;
74972;SDS011;63529;56.320;43.990;2022-09-28T04:34:39;4.90;;;3.03;;
74972;SDS011;63529;56.320;43.990;2022-09-28T04:37:05;8.25;;;2.95;;
74972;SDS011;63529;56.320;43.990;2022-09-28T04:39:31;5.82;;;3.30;;
74972;SDS011;63529;56.320;43.990;2022-09-28T04:41:57;6.00;;;3.40;;
74972;SDS011;63529;56.320;43.990;2022-09-28T04:44:25;8.13;;;3.33;;
74972;SDS011;63529;56.320;43.990;2022-09-28T04:46:56;5.65;;;3.25;;
74972;SDS011;63529;56.320;43.990;2022-09-28T04:49:42;8.48;;;4.13;;
74972;SDS011;63529;56.320;43.990;2022-09-28T04:52:28;6.93;;;3.70;;
74972;SDS011;63529;56.320;43.990;2022-09-28T04:54:54;6.80;;;3.13;;
74972;SDS011;63529;56.320;43.990;2022-09-28T04:57:21;6.30;;;3.75;;
74972;SDS011;63529;56.320;43.990;2022-09-28T04:59:47;6.43;;;3.60;;
74972;SDS011;63529;56.320;43.990;2022-09-28T05:02:13;5.82;;;2.97;;
74972;SDS011;63529;56.320;43.990;2022-09-28T05:04:57;5.10;;;2.90;;
74972;SDS011;63529;56.320;43.990;2022-09-28T05:07:58;6.55;;;3.17;;
74972;SDS011;63529;56.320;43.990;2022-09-28T05:10:24;5.70;;;2.28;;
74972;SDS011;63529;56.320;43.990;2022-09-28T05:12:51;5.20;;;3.25;;
74972;SDS011;63529;56.320;43.990;2022-09-28T05:15:17;4.65;;;2.63;;
74972;SDS011;63529;56.320;43.990;2022-09-28T05:17:43;6.25;;;2.95;;
74972;SDS011;63529;56.320;43.990;2022-09-28T05:22:44;8.27;;;3.67;;
74972;SDS011;63529;56.320;43.990;2022-09-28T05:25:10;4.65;;;2.80;;
74972;SDS011;63529;56.320;43.990;2022-09-28T05:27:54;8.38;;;2.38;;
74972;SDS011;63529;56.320;43.990;2022-09-28T05:30:50;5.25;;;2.63;;
74972;SDS011;63529;56.320;43.990;2022-09-28T05:33:42;5.95;;;2.75;;
74972;SDS011;63529;56.320;43.990;2022-09-28T05:36:10;6.47;;;3.45;;
74972;SDS011;63529;56.320;43.990;2022-09-28T05:38:36;3.67;;;2.40;;
74972;SDS011;63529;56.320;43.990;2022-09-28T05:41:02;4.22;;;2.70;;
74972;SDS011;63529;56.320;43.990;2022-09-28T05:43:29;5.18;;;2.92;;
74972;SDS011;63529;56.320;43.990;2022-09-28T05:45:55;3.88;;;1.67;;
74972;SDS011;63529;56.320;43.990;2022-09-28T05:48:24;3.10;;;2.08;;
74972;SDS011;63529;56.320;43.990;2022-09-28T05:50:51;6.32;;;3.00;;
74972;SDS011;63529;56.320;43.990;2022-09-28T05:53:16;4.38;;;2.38;;
74972;SDS011;63529;56.320;43.990;2022-09-28T05:55:42;4.35;;;2.47;;
74972;SDS011;63529;56.320;43.990;2022-09-28T05:58:08;3.97;;;2.42;;
74972;SDS011;63529;56.320;43.990;2022-09-28T06:00:36;4.25;;;2.60;;
74972;SDS011;63529;56.320;43.990;2022-09-28T06:03:06;4.10;;;2.47;;
74972;SDS011;63529;56.320;43.990;2022-09-28T06:05:35;5.50;;;2.75;;
74972;SDS011;63529;56.320;43.990;2022-09-28T06:08:04;9.35;;;4.80;;
74972;SDS011;63529;56.320;43.990;2022-09-28T06:10:31;3.85;;;2.30;;
74972;SDS011;63529;56.320;43.990;2022-09-28T06:13:00;3.38;;;1.88;;
74972;SDS011;63529;56.320;43.990;2022-09-28T06:15:27;3.13;;;2.03;;
74972;SDS011;63529;56.320;43.990;2022-09-28T06:20:36;2.42;;;1.73;;
74972;SDS011;63529;56.320;43.990;2022-09-28T06:23:18;2.92;;;1.98;;
74972;SDS011;63529;56.320;43.990;2022-09-28T06:25:44;2.40;;;1.83;;
74972;SDS011;63529;56.320;43.990;2022-09-28T06:28:11;5.35;;;2.63;;
74972;SDS011;63529;56.320;43.990;2022-09-28T06:30:38;2.88;;;1.98;;
74972;SDS011;63529;56.320;43.990;2022-09-28T06:33:09;2.97;;;2.00;;
74972;SDS011;63529;56.320;43.990;2022-09-28T06:35:37;3.50;;;1.73;;
74972;SDS011;63529;56.320;43.990;2022-09-28T06:38:05;3.28;;;1.83;;
74972;SDS011;63529;56.320;43.990;2022-09-28T06:40:32;3.53;;;1.80;;
74972;SDS011;63529;56.320;43.990;2022-09-28T06:43:00;2.47;;;1.80;;
74972;SDS011;63529;56.320;43.990;2022-09-28T06:45:52;1.55;;;1.15;;
74972;SDS011;63529;56.320;43.990;2022-09-28T06:48:48;1.42;;;1.15;;
74972;SDS011;63529;56.320;43.990;2022-09-28T06:54:17;2.95;;;1.42;;
74972;SDS011;63529;56.320;43.990;2022-09-28T06:57:06;4.60;;;1.58;;
74972;SDS011;63529;56.320;43.990;2022-09-28T06:59:32;9.90;;;5.53;;
74972;SDS011;63529;56.320;43.990;2022-09-28T07:01:59;4.40;;;2.60;;
74972;SDS011;63529;56.320;43.990;2022-09-28T07:05:00;2.17;;;1.35;;
74972;SDS011;63529;56.320;43.990;2022-09-28T07:07:56;1.95;;;1.30;;
74972;SDS011;63529;56.320;43.990;2022-09-28T07:10:41;5.32;;;2.00;;
74972;SDS011;63529;56.320;43.990;2022-09-28T07:13:27;4.05;;;2.70;;
74972;SDS011;63529;56.320;43.990;2022-09-28T07:16:02;1.90;;;1.27;;
74972;SDS011;63529;56.320;43.990;2022-09-28T07:18:28;2.60;;;1.67;;
74972;SDS011;63529;56.320;43.990;2022-09-28T07:20:56;1.95;;;1.30;;
74972;SDS011;63529;56.320;43.990;2022-09-28T07:23:24;2.50;;;1.60;;
74972;SDS011;63529;56.320;43.990;2022-09-28T07:26:29;2.35;;;1.35;;
74972;SDS011;63529;56.320;43.990;2022-09-28T07:28:57;3.38;;;2.08;;
74972;SDS011;63529;56.320;43.990;2022-09-28T07:31:37;6.93;;;3.97;;
74972;SDS011;63529;56.320;43.990;2022-09-28T07:34:32;3.60;;;1.95;;
74972;SDS011;63529;56.320;43.990;2022-09-28T07:37:22;2.97;;;1.05;;
74972;SDS011;63529;56.320;43.990;2022-09-28T07:39:52;4.38;;;1.70;;
74972;SDS011;63529;56.320;43.990;2022-09-28T07:42:37;5.97;;;3.13;;
74972;SDS011;63529;56.320;43.990;2022-09-28T07:45:03;4.68;;;2.40;;
74972;SDS011;63529;56.320;43.990;2022-09-28T07:47:31;5.88;;;1.73;;
74972;SDS011;63529;56.320;43.990;2022-09-28T07:50:16;2.60;;;1.73;;
74972;SDS011;63529;56.320;43.990;2022-09-28T07:52:57;3.42;;;1.90;;
74972;SDS011;63529;56.320;43.990;2022-09-28T07:55:48;5.68;;;3.30;;
74972;SDS011;63529;56.320;43.990;2022-09-28T07:58:32;6.90;;;2.25;;
74972;SDS011;63529;56.320;43.990;2022-09-28T08:01:17;2.65;;;1.70;;
74972;SDS011;63529;56.320;43.990;2022-09-28T08:03:44;2.00;;;1.50;;
74972;SDS011;63529;56.320;43.990;2022-09-28T08:06:12;2.17;;;1.50;;
74972;SDS011;63529;56.320;43.990;2022-09-28T08:08:42;2.53;;;1.35;;
74972;SDS011;63529;56.320;43.990;2022-09-28T08:11:10;2.72;;;1.50;;
74972;SDS011;63529;56.320;43.990;2022-09-28T08:14:00;3.55;;;1.30;;
74972;SDS011;63529;56.320;43.990;2022-09-28T08:16:56;2.13;;;1.60;;
74972;SDS011;63529;56.320;43.990;2022-09-28T08:19:38;2.45;;;1.58;;
74972;SDS011;63529;56.320;43.990;2022-09-28T08:22:22;2.00;;;1.52;;
74972;SDS011;63529;56.320;43.990;2022-09-28T08:24:51;3.88;;;1.65;;
74972;SDS011;63529;56.320;43.990;2022-09-28T08:27:17;1.75;;;1.30;;
74972;SDS011;63529;56.320;43.990;2022-09-28T08:29:53;2.38;;;1.30;;
74972;SDS011;63529;56.320;43.990;2022-09-28T08:32:46;3.53;;;2.10;;
74972;SDS011;63529;56.320;43.990;2022-09-28T08:35:34;2.08;;;1.35;;
74972;SDS011;63529;56.320;43.990;2022-09-28T08:38:12;2.15;;;1.42;;
74972;SDS011;63529;56.320;43.990;2022-09-28T08:44:22;1.55;;;1.30;;
74972;SDS011;63529;56.320;43.990;2022-09-28T08:47:17;2.47;;;1.20;;
74972;SDS011;63529;56.320;43.990;2022-09-28T08:50:24;1.60;;;1.20;;
74972;SDS011;63529;56.320;43.990;2022-09-28T08:53:06;1.63;;;1.00;;
74972;SDS011;63529;56.320;43.990;2022-09-28T08:56:01;2.63;;;1.30;;
74972;SDS011;63529;56.320;43.990;2022-09-28T08:58:42;1.00;;;0.90;;
74972;SDS011;63529;56.320;43.990;2022-09-28T09:01:12;1.75;;;1.13;;
74972;SDS011;63529;56.320;43.990;2022-09-28T09:03:43;14.98;;;5.95;;
74972;SDS011;63529;56.320;43.990;2022-09-28T09:12:09;3.70;;;1.77;;
74972;SDS011;63529;56.320;43.990;2022-09-28T09:21:06;2.33;;;1.10;;
74972;SDS011;63529;56.320;43.990;2022-09-28T09:26:20;2.42;;;1.00;;
74972;SDS011;63529;56.320;43.990;2022-09-28T09:39:02;2.72;;;1.50;;
74972;SDS011;63529;56.320;43.990;2022-09-28T09:42:10;1.60;;;0.93;;
74972;SDS011;63529;56.320;43.990;2022-09-28T09:48:44;0.90;;;0.77;;
74972;SDS011;63529;56.320;43.990;2022-09-28T09:54:22;1.27;;;0.93;;
74972;SDS011;63529;56.320;43.990;2022-09-28T09:56:58;1.23;;;0.73;;
74972;SDS011;63529;56.320;43.990;2022-09-28T09:59:50;1.23;;;0.70;;
74972;SDS011;63529;56.320;43.990;2022-09-28T10:02:37;0.60;;;0.60;;
74972;SDS011;63529;56.320;43.990;2022-09-28T10:05:20;5.20;;;1.65;;
74972;SDS011;63529;56.320;43.990;2022-09-28T10:10:35;2.05;;;0.95;;
74972;SDS011;63529;56.320;43.990;2022-09-28T10:13:10;2.97;;;1.50;;
74972;SDS011;63529;56.320;43.990;2022-09-28T10:15:36;2.30;;;1.00;;
74972;SDS011;63529;56.320;43.990;2022-09-28T10:18:11;1.60;;;0.70;;
74972;SDS011;63529;56.320;43.990;2022-09-28T10:20:59;0.90;;;0.70;;
74972;SDS011;63529;56.320;43.990;2022-09-28T10:23:32;1.27;;;0.80;;
74972;SDS011;63529;56.320;43.990;2022-09-28T10:26:02;1.75;;;0.70;;
74972;SDS011;63529;56.320;43.990;2022-09-28T10:28:34;3.03;;;1.00;;
74972;SDS011;63529;56.320;43.990;2022-09-28T10:34:07;4.70;;;2.38;;
74972;SDS011;63529;56.320;43.990;2022-09-28T10:39:26;0.50;;;0.32;;
74972;SDS011;63529;56.320;43.990;2022-09-28T10:41:55;3.88;;;0.60;;
74972;SDS011;63529;56.320;43.990;2022-09-28T10:44:27;0.82;;;0.52;;
74972;SDS011;63529;56.320;43.990;2022-09-28T10:47:14;1.00;;;0.80;;
74972;SDS011;63529;56.320;43.990;2022-09-28T10:49:46;2.95;;;0.80;;
74972;SDS011;63529;56.320;43.990;2022-09-28T10:55:02;1.58;;;0.82;;
74972;SDS011;63529;56.320;43.990;2022-09-28T10:57:52;1.80;;;0.85;;
74972;SDS011;63529;56.320;43.990;2022-09-28T11:00:41;0.80;;;0.70;;
74972;SDS011;63529;56.320;43.990;2022-09-28T11:03:16;2.40;;;0.60;;
74972;SDS011;63529;56.320;43.990;2022-09-28T11:05:58;1.45;;;0.60;;
74972;SDS011;63529;56.320;43.990;2022-09-28T11:08:35;1.35;;;0.85;;
74972;SDS011;63529;56.320;43.990;2022-09-28T11:11:10;1.10;;;0.77;;
74972;SDS011;63529;56.320;43.990;2022-09-28T11:13:48;1.20;;;0.82;;
74972;SDS011;63529;56.320;43.990;2022-09-28T11:16:27;0.80;;;0.70;;
74972;SDS011;63529;56.320;43.990;2022-09-28T11:21:23;1.30;;;0.60;;
74972;SDS011;63529;56.320;43.990;2022-09-28T11:24:19;0.95;;;0.85;;
74972;SDS011;63529;56.320;43.990;2022-09-28T11:26:46;1.75;;;0.65;;
74972;SDS011;63529;56.320;43.990;2022-09-28T11:29:29;0.80;;;0.75;;
74972;SDS011;63529;56.320;43.990;2022-09-28T11:32:29;0.90;;;0.85;;
74972;SDS011;63529;56.320;43.990;2022-09-28T11:35:36;1.08;;;0.80;;
74972;SDS011;63529;56.320;43.990;2022-09-28T11:38:24;0.60;;;0.50;;
74972;SDS011;63529;56.320;43.990;2022-09-28T11:50:26;1.02;;;0.85;;
74972;SDS011;63529;56.320;43.990;2022-09-28T11:56:04;0.60;;;0.60;;
74972;SDS011;63529;56.320;43.990;2022-09-28T11:58:39;0.95;;;0.70;;
74972;SDS011;63529;56.320;43.990;2022-09-28T12:04:22;0.82;;;0.70;;
74972;SDS011;63529;56.320;43.990;2022-09-28T12:07:01;1.92;;;1.00;;
74972;SDS011;63529;56.320;43.990;2022-09-28T12:09:39;0.85;;;0.55;;
74972;SDS011;63529;56.320;43.990;2022-09-28T12:12:19;1.75;;;0.80;;
74972;SDS011;63529;56.320;43.990;2022-09-28T12:17:46;0.93;;;0.63;;
74972;SDS011;63529;56.320;43.990;2022-09-28T12:20:26;2.05;;;0.60;;
74972;SDS011;63529;56.320;43.990;2022-09-28T12:25:24;1.05;;;0.75;;
74972;SDS011;63529;56.320;43.990;2022-09-28T12:27:55;1.60;;;0.85;;
74972;SDS011;63529;56.320;43.990;2022-09-28T12:30:25;1.20;;;0.80;;
74972;SDS011;63529;56.320;43.990;2022-09-28T12:33:00;1.75;;;0.68;;
74972;SDS011;63529;56.320;43.990;2022-09-28T12:43:48;0.77;;;0.68;;
74972;SDS011;63529;56.320;43.990;2022-09-28T12:52:36;0.95;;;0.60;;
74972;SDS011;63529;56.320;43.990;2022-09-28T13:00:50;0.90;;;0.70;;
74972;SDS011;63529;56.320;43.990;2022-09-28T13:08:53;1.55;;;0.82;;
74972;SDS011;63529;56.320;43.990;2022-09-28T13:11:48;1.95;;;1.00;;
74972;SDS011;63529;56.320;43.990;2022-09-28T13:22:26;0.73;;;0.70;;
74972;SDS011;63529;56.320;43.990;2022-09-28T13:25:06;1.58;;;0.90;;
74972;SDS011;63529;56.320;43.990;2022-09-28T13:27:47;0.80;;;0.80;;
74972;SDS011;63529;56.320;43.990;2022-09-28T13:30:17;2.70;;;1.23;;
74972;SDS011;63529;56.320;43.990;2022-09-28T13:32:44;0.95;;;0.85;;
74972;SDS011;63529;56.320;43.990;2022-09-28T13:35:15;3.47;;;1.80;;
74972;SDS011;63529;56.320;43.990;2022-09-28T13:37:46;0.70;;;0.60;;
74972;SDS011;63529;56.320;43.990;2022-09-28T13:40:13;2.17;;;1.10;;
74972;SDS011;63529;56.320;43.990;2022-09-28T13:51:12;2.15;;;0.80;;
74972;SDS011;63529;56.320;43.990;2022-09-28T13:59:26;1.23;;;0.90;;
74972;SDS011;63529;56.320;43.990;2022-09-28T14:01:59;0.90;;;0.85;;
74972;SDS011;63529;56.320;43.990;2022-09-28T14:05:06;1.30;;;0.88;;
74972;SDS011;63529;56.320;43.990;2022-09-28T14:10:53;1.50;;;1.15;;
74972;SDS011;63529;56.320;43.990;2022-09-28T14:21:58;1.65;;;1.27;;
74972;SDS011;63529;56.320;43.990;2022-09-28T14:30:03;3.88;;;2.70;;
74972;SDS011;63529;56.320;43.990;2022-09-28T14:32:39;4.30;;;2.10;;
74972;SDS011;63529;56.320;43.990;2022-09-28T14:35:23;1.08;;;0.75;;
74972;SDS011;63529;56.320;43.990;2022-09-28T14:48:46;0.88;;;0.63;;
74972;SDS011;63529;56.320;43.990;2022-09-28T14:54:01;0.85;;;0.80;;
74972;SDS011;63529;56.320;43.990;2022-09-28T14:56:31;1.05;;;0.63;;
74972;SDS011;63529;56.320;43.990;2022-09-28T14:59:03;1.85;;;0.65;;
74972;SDS011;63529;56.320;43.990;2022-09-28T15:01:31;0.60;;;0.55;;
74972;SDS011;63529;56.320;43.990;2022-09-28T15:04:00;0.60;;;0.60;;
74972;SDS011;63529;56.320;43.990;2022-09-28T15:06:48;1.73;;;0.50;;
74972;SDS011;63529;56.320;43.990;2022-09-28T15:09:28;0.55;;;0.50;;
74972;SDS011;63529;56.320;43.990;2022-09-28T15:11:59;1.13;;;0.93;;
74972;SDS011;63529;56.320;43.990;2022-09-28T15:14:27;0.63;;;0.50;;
74972;SDS011;63529;56.320;43.990;2022-09-28T15:19:31;0.68;;;0.60;;
74972;SDS011;63529;56.320;43.990;2022-09-28T15:22:17;1.13;;;0.88;;
74972;SDS011;63529;56.320;43.990;2022-09-28T15:24:55;0.70;;;0.70;;
74972;SDS011;63529;56.320;43.990;2022-09-28T15:27:23;1.00;;;0.77;;
74972;SDS011;63529;56.320;43.990;2022-09-28T15:29:59;0.70;;;0.70;;
74972;SDS011;63529;56.320;43.990;2022-09-28T15:32:28;0.90;;;0.65;;
74972;SDS011;63529;56.320;43.990;2022-09-28T15:34:56;0.75;;;0.70;;
74972;SDS011;63529;56.320;43.990;2022-09-28T15:37:38;1.27;;;0.70;;
74972;SDS011;63529;56.320;43.990;2022-09-28T15:40:09;1.00;;;0.68;;
74972;SDS011;63529;56.320;43.990;2022-09-28T15:42:38;0.68;;;0.68;;
74972;SDS011;63529;56.320;43.990;2022-09-28T15:47:40;0.73;;;0.60;;
74972;SDS011;63529;56.320;43.990;2022-09-28T15:50:20;2.15;;;0.60;;
74972;SDS011;63529;56.320;43.990;2022-09-28T15:52:59;0.50;;;0.50;;
74972;SDS011;63529;56.320;43.990;2022-09-28T15:55:33;1.15;;;0.73;;
74972;SDS011;63529;56.320;43.990;2022-09-28T16:00:39;0.95;;;0.70;;
74972;SDS011;63529;56.320;43.990;2022-09-28T16:05:51;0.65;;;0.50;;
74972;SDS011;63529;56.320;43.990;2022-09-28T16:08:46;1.27;;;1.00;;
74972;SDS011;63529;56.320;43.990;2022-09-28T16:11:25;0.73;;;0.73;;
74972;SDS011;63529;56.320;43.990;2022-09-28T16:16:27;1.08;;;0.77;;
74972;SDS011;63529;56.320;43.990;2022-09-28T16:18:55;0.88;;;0.70;;
74972;SDS011;63529;56.320;43.990;2022-09-28T16:23:51;0.93;;;0.80;;
74972;SDS011;63529;56.320;43.990;2022-09-28T16:26:27;0.77;;;0.50;;
74972;SDS011;63529;56.320;43.990;2022-09-28T16:28:57;0.52;;;0.52;;
74972;SDS011;63529;56.320;43.990;2022-09-28T16:31:25;1.17;;;1.00;;
74972;SDS011;63529;56.320;43.990;2022-09-28T16:36:20;0.68;;;0.60;;
74972;SDS011;63529;56.320;43.990;2022-09-28T16:38:47;1.02;;;0.75;;
74972;SDS011;63529;56.320;43.990;2022-09-28T16:41:14;0.73;;;0.70;;
74972;SDS011;63529;56.320;43.990;2022-09-28T16:43:45;0.90;;;0.65;;
74972;SDS011;63529;56.320;43.990;2022-09-28T16:46:15;1.15;;;0.77;;
74972;SDS011;63529;56.320;43.990;2022-09-28T16:48:42;0.90;;;0.65;;
74972;SDS011;63529;56.320;43.990;2022-09-28T16:51:16;0.98;;;0.73;;
74972;SDS011;63529;56.320;43.990;2022-09-28T16:53:43;0.60;;;0.60;;
74972;SDS011;63529;56.320;43.990;2022-09-28T16:56:32;0.75;;;0.70;;
74972;SDS011;63529;56.320;43.990;2022-09-28T16:59:13;0.88;;;0.65;;
74972;SDS011;63529;56.320;43.990;2022-09-28T17:01:38;1.00;;;0.90;;
74972;SDS011;63529;56.320;43.990;2022-09-28T17:04:07;2.65;;;1.08;;
74972;SDS011;63529;56.320;43.990;2022-09-28T17:06:33;1.13;;;0.90;;
74972;SDS011;63529;56.320;43.990;2022-09-28T17:08:59;0.75;;;0.70;;
74972;SDS011;63529;56.320;43.990;2022-09-28T17:11:31;1.15;;;0.65;;
74972;SDS011;63529;56.320;43.990;2022-09-28T17:13:56;1.67;;;1.10;;
74972;SDS011;63529;56.320;43.990;2022-09-28T17:16:24;1.10;;;0.93;;
74972;SDS011;63529;56.320;43.990;2022-09-28T17:18:55;1.33;;;1.02;;
74972;SDS011;63529;56.320;43.990;2022-09-28T17:21:21;1.30;;;1.00;;
74972;SDS011;63529;56.320;43.990;2022-09-28T17:23:47;1.20;;;1.00;;
74972;SDS011;63529;56.320;43.990;2022-09-28T17:26:32;1.38;;;1.10;;
74972;SDS011;63529;56.320;43.990;2022-09-28T17:29:01;0.77;;;0.75;;
74972;SDS011;63529;56.320;43.990;2022-09-28T17:31:28;1.00;;;0.90;;
74972;SDS011;63529;56.320;43.990;2022-09-28T17:33:55;1.77;;;0.80;;
74972;SDS011;63529;56.320;43.990;2022-09-28T17:36:21;1.13;;;0.70;;
74972;SDS011;63529;56.320;43.990;2022-09-28T17:38:47;1.00;;;0.80;;
74972;SDS011;63529;56.320;43.990;2022-09-28T17:41:15;1.40;;;0.90;;
74972;SDS011;63529;56.320;43.990;2022-09-28T17:43:42;1.13;;;0.95;;
74972;SDS011;63529;56.320;43.990;2022-09-28T17:48:55;1.20;;;1.05;;
74972;SDS011;63529;56.320;43.990;2022-09-28T17:51:29;1.38;;;1.02;;
74972;SDS011;63529;56.320;43.990;2022-09-28T17:53:57;1.60;;;1.10;;
74972;SDS011;63529;56.320;43.990;2022-09-28T17:56:25;3.35;;;1.30;;
74972;SDS011;63529;56.320;43.990;2022-09-28T17:58:55;1.58;;;1.10;;
74972;SDS011;63529;56.320;43.990;2022-09-28T18:01:24;0.95;;;0.82;;
74972;SDS011;63529;56.320;43.990;2022-09-28T18:03:50;1.13;;;0.85;;
74972;SDS011;63529;56.320;43.990;2022-09-28T18:06:17;1.30;;;0.80;;
74972;SDS011;63529;56.320;43.990;2022-09-28T18:08:48;1.00;;;0.90;;
74972;SDS011;63529;56.320;43.990;2022-09-28T18:11:14;0.70;;;0.60;;
74972;SDS011;63529;56.320;43.990;2022-09-28T18:13:41;1.88;;;0.82;;
74972;SDS011;63529;56.320;43.990;2022-09-28T18:16:10;0.95;;;0.80;;
74972;SDS011;63529;56.320;43.990;2022-09-28T18:18:37;1.13;;;0.73;;
74972;SDS011;63529;56.320;43.990;2022-09-28T18:21:04;1.35;;;1.00;;
74972;SDS011;63529;56.320;43.990;2022-09-28T18:23:33;1.15;;;0.70;;
74972;SDS011;63529;56.320;43.990;2022-09-28T18:26:01;1.05;;;0.70;;
74972;SDS011;63529;56.320;43.990;2022-09-28T18:28:27;0.60;;;0.60;;
74972;SDS011;63529;56.320;43.990;2022-09-28T18:30:53;0.95;;;0.80;;
74972;SDS011;63529;56.320;43.990;2022-09-28T18:33:19;0.80;;;0.80;;
74972;SDS011;63529;56.320;43.990;2022-09-28T18:35:52;0.65;;;0.65;;
74972;SDS011;63529;56.320;43.990;2022-09-28T18:38:18;1.58;;;0.90;;
74972;SDS011;63529;56.320;43.990;2022-09-28T18:40:45;0.95;;;0.77;;